Time;durP1;ratioP1;P1;durP2;ratioP2;P2;SDS_P1;SDS_P2;PMS_P1;PMS_P2;Temp;Humidity;BMP_temperature;BMP_pressure;BME280_temperature;BME280_humidity;BME280_pressure;Samples;Min_cycle;Max_cycle;Signal;HPM_P1;HPM_P2
2023/05/21 00:01:51;;;;;;;13.07;6.57;;;;;;;14.54;100.00;101804.16;4960344;28;20048;-74
2023/05/21 00:04:17;;;;;;;13.07;6.72;;;;;;;14.56;100.00;101799.53;4962713;28;20032;-73
2023/05/21 00:06:44;;;;;;;8.18;5.40;;;;;;;14.65;100.00;101797.13;4967525;28;20632;-74
2023/05/21 00:09:11;;;;;;;13.07;6.57;;;;;;;14.47;100.00;101793.84;4969830;28;20041;-72
2023/05/21 00:11:37;;;;;;;9.02;6.72;;;;;;;14.36;100.00;101790.09;4984717;28;20074;-72
2023/05/21 00:14:03;;;;;;;14.63;7.10;;;;;;;14.32;100.00;101788.56;4968471;28;20043;-72
2023/05/21 00:16:31;;;;;;;8.77;6.30;;;;;;;14.30;100.00;101796.69;4968897;28;20046;-72
2023/05/21 00:18:56;;;;;;;9.60;5.80;;;;;;;14.46;100.00;101788.53;4960832;28;20827;-72
2023/05/21 00:21:24;;;;;;;7.78;5.97;;;;;;;14.52;100.00;101790.00;4969887;28;20057;-73
2023/05/21 00:23:55;;;;;;;9.23;6.40;;;;;;;14.43;100.00;101786.03;4972554;28;20073;-71
2023/05/21 00:26:22;;;;;;;12.82;6.82;;;;;;;14.66;100.00;101776.50;4969718;28;20039;-72
2023/05/21 00:28:49;;;;;;;10.57;6.63;;;;;;;14.59;100.00;101778.75;4962211;28;20220;-72
2023/05/21 00:31:16;;;;;;;8.93;6.40;;;;;;;14.69;100.00;101773.63;4977906;28;20028;-71
2023/05/21 00:33:42;;;;;;;7.90;6.53;;;;;;;14.49;100.00;101772.25;4978712;28;20045;-72
2023/05/21 00:36:09;;;;;;;10.20;7.05;;;;;;;14.50;100.00;101773.97;4974454;28;20769;-72
2023/05/21 00:38:36;;;;;;;11.95;6.40;;;;;;;14.51;100.00;101762.28;4983598;28;20109;-73
2023/05/21 00:41:02;;;;;;;15.27;7.50;;;;;;;14.43;100.00;101764.56;4981697;28;20355;-72
2023/05/21 00:43:31;;;;;;;7.72;6.50;;;;;;;14.32;100.00;101773.31;4968887;28;20089;-72
2023/05/21 00:45:58;;;;;;;13.23;6.70;;;;;;;14.29;100.00;101776.19;4961352;28;20154;-72
2023/05/21 00:48:24;;;;;;;13.05;6.93;;;;;;;14.37;100.00;101764.97;4969989;28;20153;-71
2023/05/21 00:50:49;;;;;;;13.68;6.90;;;;;;;14.27;100.00;101774.56;4958810;28;20069;-72
2023/05/21 00:53:18;;;;;;;11.85;7.28;;;;;;;14.36;100.00;101765.94;4953613;28;20078;-71
2023/05/21 00:55:45;;;;;;;9.50;7.15;;;;;;;14.53;100.00;101749.63;4984459;28;20027;-74
2023/05/21 00:58:11;;;;;;;8.00;6.43;;;;;;;14.31;100.00;101762.66;4964242;28;20039;-73
2023/05/21 01:00:39;;;;;;;11.73;7.55;;;;;;;14.34;100.00;101763.34;4976061;28;20121;-72
2023/05/21 01:03:06;;;;;;;11.57;6.93;;;;;;;14.44;100.00;101751.03;4980553;28;20050;-72
2023/05/21 01:05:32;;;;;;;9.60;6.60;;;;;;;14.53;100.00;101749.63;4959449;28;20146;-72
2023/05/21 01:07:58;;;;;;;8.93;6.80;;;;;;;14.46;100.00;101754.50;4969357;28;20043;-72
2023/05/21 01:10:26;;;;;;;11.77;7.30;;;;;;;14.45;100.00;101750.06;4969590;28;20058;-73
2023/05/21 01:12:54;;;;;;;10.90;7.50;;;;;;;14.45;100.00;101754.59;4963444;28;20137;-73
2023/05/21 01:15:19;;;;;;;10.32;6.78;;;;;;;14.52;100.00;101752.41;4984698;28;20043;-72
2023/05/21 01:17:47;;;;;;;11.57;7.30;;;;;;;14.52;100.00;101760.47;4964622;28;20039;-72
2023/05/21 01:20:19;;;;;;;8.40;6.53;;;;;;;14.19;100.00;101745.53;4960893;28;20034;-72
2023/05/21 01:22:54;;;;;;;9.68;7.57;;;;;;;14.34;100.00;101746.38;4968184;28;20055;-74
2023/05/21 01:25:23;;;;;;;11.18;6.95;;;;;;;14.23;100.00;101741.72;4985621;28;20031;-73
2023/05/21 01:27:50;;;;;;;11.52;8.25;;;;;;;14.19;100.00;101753.59;4973913;28;20045;-73
2023/05/21 01:30:19;;;;;;;12.30;7.45;;;;;;;14.18;100.00;101750.03;4974938;28;20042;-72
2023/05/21 01:33:12;;;;;;;11.80;8.13;;;;;;;14.39;100.00;101746.94;4961542;28;20039;-71
2023/05/21 01:35:42;;;;;;;;;;;;;;;14.13;100.00;101749.47;4967613;28;20053;-72
2023/05/21 01:38:49;;;;;;;9.85;7.18;;;;;;;14.22;100.00;101745.34;4969728;28;19961;-71
2023/05/21 01:41:18;;;;;;;12.00;8.07;;;;;;;14.31;100.00;101733.16;4957971;28;20043;-72
2023/05/21 01:43:47;;;;;;;10.93;8.52;;;;;;;14.22;100.00;101738.16;4974479;28;20980;-72
2023/05/21 01:46:18;;;;;;;10.77;7.68;;;;;;;14.33;100.00;101732.09;4979540;28;20042;-71
2023/05/21 01:48:45;;;;;;;13.65;8.07;;;;;;;14.37;100.00;101733.63;4969522;28;20058;-72
2023/05/21 01:51:11;;;;;;;11.48;8.35;;;;;;;14.42;100.00;101725.28;4965050;28;20772;-72
2023/05/21 01:53:39;;;;;;;9.93;7.78;;;;;;;14.25;100.00;101726.34;4980362;28;20611;-71
2023/05/21 01:56:06;;;;;;;10.73;8.00;;;;;;;14.48;100.00;101717.72;4978256;28;20058;-72
2023/05/21 01:58:32;;;;;;;12.52;7.75;;;;;;;14.31;100.00;101730.47;4975063;28;20106;-73
2023/05/21 02:01:01;;;;;;;10.07;7.88;;;;;;;14.21;100.00;101727.53;4980027;28;20038;-73
2023/05/21 02:03:29;;;;;;;11.57;8.27;;;;;;;14.24;100.00;101728.19;4961969;28;20043;-74
2023/05/21 02:05:56;;;;;;;11.45;7.93;;;;;;;14.11;100.00;101734.47;4963768;28;20042;-75
2023/05/21 02:08:22;;;;;;;10.52;8.38;;;;;;;13.96;100.00;101736.28;4980493;28;20078;-74
2023/05/21 02:10:49;;;;;;;12.40;8.35;;;;;;;14.03;100.00;101732.25;4973149;28;20042;-74
2023/05/21 02:13:21;;;;;;;12.20;8.07;;;;;;;13.81;100.00;101738.13;4970886;28;20038;-73
2023/05/21 02:15:47;;;;;;;15.25;8.38;;;;;;;13.82;100.00;101728.25;4965039;28;20100;-73
2023/05/21 02:18:15;;;;;;;14.00;9.10;;;;;;;13.90;100.00;101729.47;4989202;28;20049;-73
2023/05/21 02:20:44;;;;;;;10.40;7.80;;;;;;;13.97;100.00;101725.47;4972695;28;20046;-74
2023/05/21 02:23:10;;;;;;;11.15;8.57;;;;;;;13.81;100.00;101723.84;4962943;28;20042;-73
2023/05/21 02:25:36;;;;;;;9.10;7.97;;;;;;;13.76;100.00;101728.66;4976667;28;20503;-73
2023/05/21 02:28:01;;;;;;;11.02;8.73;;;;;;;13.77;100.00;101714.28;4977616;28;20034;-74
2023/05/21 02:30:27;;;;;;;12.00;8.13;;;;;;;13.66;100.00;101718.50;4967794;28;20038;-72
2023/05/21 02:32:54;;;;;;;13.07;9.05;;;;;;;13.55;100.00;101715.59;4993522;28;20038;-72
2023/05/21 02:35:19;;;;;;;12.27;8.35;;;;;;;13.61;100.00;101723.28;4976611;28;20035;-71
2023/05/21 02:37:45;;;;;;;11.32;8.20;;;;;;;13.52;100.00;101717.63;4973117;28;20853;-73
2023/05/21 02:40:12;;;;;;;11.80;8.93;;;;;;;13.55;100.00;101718.28;4976752;28;20043;-75
2023/05/21 02:42:40;;;;;;;10.65;8.18;;;;;;;13.55;100.00;101717.41;4985066;28;20047;-73
2023/05/21 02:45:12;;;;;;;12.43;8.82;;;;;;;13.59;100.00;101718.94;4978099;28;20031;-73
2023/05/21 02:47:40;;;;;;;12.07;8.85;;;;;;;13.77;100.00;101725.84;4966792;28;20157;-73
2023/05/21 02:50:07;;;;;;;10.25;8.27;;;;;;;13.65;100.00;101715.88;4980929;28;20114;-71
2023/05/21 02:52:35;;;;;;;11.43;8.70;;;;;;;13.65;100.00;101715.88;4985333;28;20133;-72
2023/05/21 02:55:01;;;;;;;15.27;9.05;;;;;;;13.61;100.00;101722.41;4949271;28;20046;-71
2023/05/21 02:57:28;;;;;;;11.93;8.30;;;;;;;13.83;100.00;101713.88;4967994;28;20130;-72
2023/05/21 02:59:53;;;;;;;13.23;9.02;;;;;;;13.68;100.00;101718.38;4970825;28;20041;-72
2023/05/21 03:02:19;;;;;;;14.20;9.25;;;;;;;13.53;100.00;101709.47;4976811;28;20051;-72
2023/05/21 03:04:45;;;;;;;14.70;9.45;;;;;;;13.51;100.00;101714.09;4982294;28;20046;-73
2023/05/21 03:07:14;;;;;;;11.27;8.50;;;;;;;13.53;100.00;101712.16;4971588;28;20904;-73
2023/05/21 03:09:43;;;;;;;18.30;8.90;;;;;;;13.37;100.00;101714.91;4966796;28;20558;-72
2023/05/21 03:12:09;;;;;;;13.10;8.27;;;;;;;13.58;100.00;101710.06;4962375;28;20054;-73
2023/05/21 03:14:35;;;;;;;11.32;8.57;;;;;;;13.47;100.00;101713.41;4980082;28;20082;-72
2023/05/21 03:17:04;;;;;;;13.10;8.55;;;;;;;13.56;100.00;101705.75;4967932;28;20034;-72
2023/05/21 03:19:35;;;;;;;11.05;9.15;;;;;;;13.40;100.00;101704.03;4970630;28;20038;-73
2023/05/21 03:22:02;;;;;;;12.60;9.13;;;;;;;13.34;100.00;101698.16;4971870;28;20050;-73
2023/05/21 03:24:30;;;;;;;16.55;10.13;;;;;;;13.24;100.00;101699.69;4971331;28;20086;-73
2023/05/21 03:26:57;;;;;;;12.43;9.13;;;;;;;13.38;100.00;101702.38;4986630;28;20039;-72
2023/05/21 03:29:24;;;;;;;18.67;8.43;;;;;;;13.23;100.00;101698.81;4977623;28;20116;-72
2023/05/21 03:31:52;;;;;;;13.20;8.77;;;;;;;13.23;100.00;101706.84;4971679;28;20041;-74
2023/05/21 03:34:22;;;;;;;11.43;9.25;;;;;;;13.32;100.00;101694.72;4962841;28;20082;-73
2023/05/21 03:36:48;;;;;;;15.68;9.35;;;;;;;13.36;100.00;101701.63;4985329;28;20428;-73
2023/05/21 03:39:19;;;;;;;12.27;9.52;;;;;;;13.30;100.00;101701.97;4984562;28;20145;-73
2023/05/21 03:41:47;;;;;;;14.73;8.82;;;;;;;13.35;100.00;101698.06;4985578;28;20971;-73
2023/05/21 03:44:23;;;;;;;17.05;9.07;;;;;;;13.32;100.00;101698.28;4949098;28;20727;-73
2023/05/21 03:46:57;;;;;;;14.65;9.25;;;;;;;13.27;100.00;101704.88;4960999;28;20153;-73
2023/05/21 03:49:34;;;;;;;12.73;8.57;;;;;;;13.32;100.00;101700.09;4970129;28;20115;-73
2023/05/21 03:52:00;;;;;;;13.75;9.18;;;;;;;13.44;100.00;101704.69;4968205;28;20113;-73
2023/05/21 03:54:26;;;;;;;12.23;8.98;;;;;;;13.24;100.00;101702.34;4944175;28;20035;-73
2023/05/21 03:56:56;;;;;;;14.80;9.27;;;;;;;13.34;100.00;101696.34;4970397;28;20039;-73
2023/05/21 03:59:23;;;;;;;10.20;8.68;;;;;;;13.14;100.00;101691.31;4980377;28;20039;-71
2023/05/21 04:01:48;;;;;;;14.90;9.77;;;;;;;13.29;100.00;101695.75;4965298;28;20123;-72
2023/05/21 04:04:15;;;;;;;16.15;9.70;;;;;;;13.32;100.00;101695.59;4970319;28;20126;-75
2023/05/21 04:06:42;;;;;;;13.45;9.77;;;;;;;13.28;100.00;101701.22;4970066;28;20034;-72
2023/05/21 04:09:08;;;;;;;16.50;9.48;;;;;;;13.20;100.00;101701.63;4966779;28;20042;-73
2023/05/21 04:11:35;;;;;;;11.85;8.68;;;;;;;13.27;100.00;101716.44;4976501;28;20570;-72
2023/05/21 04:14:02;;;;;;;15.00;9.55;;;;;;;13.36;100.00;101709.66;4970072;28;20046;-72
2023/05/21 04:16:28;;;;;;;10.27;8.35;;;;;;;13.53;100.00;101709.47;4983494;28;21007;-73
2023/05/21 04:18:56;;;;;;;12.27;8.90;;;;;;;13.14;100.00;101715.41;4980427;28;20115;-73
2023/05/21 04:21:24;;;;;;;12.88;9.23;;;;;;;13.31;100.00;101717.13;4962025;28;20222;-72
2023/05/21 04:23:52;;;;;;;13.70;9.40;;;;;;;13.34;100.00;101715.09;4967009;28;20043;-72
2023/05/21 04:26:35;;;;;;;12.40;9.23;;;;;;;13.22;100.00;101715.84;4968289;28;20057;-72
2023/05/21 04:29:05;;;;;;;19.00;10.35;;;;;;;13.31;100.00;101726.03;4947158;28;20081;-74
2023/05/21 04:31:31;;;;;;;14.15;8.73;;;;;;;13.36;100.00;101728.41;4968126;28;20710;-72
2023/05/21 04:33:58;;;;;;;12.38;9.10;;;;;;;13.29;100.00;101725.22;4986922;28;20042;-71
2023/05/21 04:36:24;;;;;;;14.50;9.82;;;;;;;13.40;100.00;101728.16;4955001;28;20031;-72
2023/05/21 04:38:49;;;;;;;13.38;9.15;;;;;;;13.51;100.00;101723.94;4970806;28;20046;-72
2023/05/21 04:41:17;;;;;;;12.77;8.93;;;;;;;13.30;100.00;101729.63;4980908;28;20039;-72
2023/05/21 04:43:44;;;;;;;16.13;9.20;;;;;;;13.41;100.00;101729.00;4962677;28;20051;-72
2023/05/21 04:46:12;;;;;;;13.80;8.80;;;;;;;13.46;100.00;101729.59;4986330;28;21178;-73
2023/05/21 04:48:39;;;;;;;11.95;9.20;;;;;;;13.50;100.00;101722.19;4984330;28;20142;-72
2023/05/21 04:51:07;;;;;;;14.32;9.30;;;;;;;13.42;100.00;101722.69;4986226;28;20031;-72
2023/05/21 04:53:35;;;;;;;15.63;9.98;;;;;;;13.40;100.00;101728.16;4971333;28;20145;-73
2023/05/21 04:56:01;;;;;;;13.70;9.25;;;;;;;13.64;100.00;101723.06;4984881;28;20051;-73
2023/05/21 04:58:28;;;;;;;17.83;10.50;;;;;;;13.69;100.00;101726.31;4970967;28;20944;-73
2023/05/21 05:00:54;;;;;;;13.68;9.65;;;;;;;13.57;100.00;101719.06;4969370;28;20038;-74
2023/05/21 05:03:20;;;;;;;15.32;9.77;;;;;;;13.70;100.00;101721.81;4971054;28;20043;-72
2023/05/21 05:05:47;;;;;;;12.90;9.15;;;;;;;13.79;100.00;101715.88;4968438;28;20369;-73
2023/05/21 05:08:12;;;;;;;15.27;9.80;;;;;;;13.58;100.00;101719.91;4968422;28;20039;-73
2023/05/21 05:10:38;;;;;;;14.52;9.52;;;;;;;13.82;100.00;101715.72;4959325;28;20036;-72
2023/05/21 05:13:05;;;;;;;13.13;9.82;;;;;;;13.58;100.00;101712.72;4976923;28;20042;-73
2023/05/21 05:15:31;;;;;;;16.95;10.02;;;;;;;13.61;100.00;101712.56;4979535;28;20073;-72
2023/05/21 05:17:56;;;;;;;14.15;9.82;;;;;;;13.67;100.00;101712.16;4983500;28;20519;-75
2023/05/21 05:20:25;;;;;;;12.80;9.85;;;;;;;13.69;100.00;101707.56;4960360;28;20476;-71
2023/05/21 05:22:51;;;;;;;15.38;10.20;;;;;;;13.71;100.00;101712.84;4964562;28;20118;-72
2023/05/21 05:25:17;;;;;;;15.48;9.80;;;;;;;13.81;100.00;101707.78;4974051;28;20113;-71
2023/05/21 05:27:44;;;;;;;13.35;9.73;;;;;;;13.90;100.00;101704.47;4966720;28;20035;-72
2023/05/21 05:30:11;;;;;;;15.23;10.38;;;;;;;13.85;100.00;101714.63;4980639;28;20039;-74
2023/05/21 05:32:36;;;;;;;15.30;9.73;;;;;;;13.81;100.00;101714.00;4964821;28;20121;-75
2023/05/21 05:35:07;;;;;;;15.60;10.13;;;;;;;13.94;100.00;101712.25;4983505;28;20121;-71
2023/05/21 05:37:35;;;;;;;16.45;10.75;;;;;;;14.15;100.00;101699.25;4963982;28;20035;-71
2023/05/21 05:40:00;;;;;;;12.73;9.45;;;;;;;14.23;100.00;101704.16;4969592;28;20941;-72
2023/05/21 05:42:27;;;;;;;14.15;10.15;;;;;;;14.10;100.00;101706.75;4951117;28;20049;-72
2023/05/21 05:44:53;;;;;;;16.60;10.55;;;;;;;14.03;100.00;101710.78;4972217;28;20614;-72
2023/05/21 05:47:20;;;;;;;16.90;10.35;;;;;;;13.92;100.00;101711.47;4968936;28;20042;-72
2023/05/21 05:49:50;;;;;;;18.33;11.25;;;;;;;13.98;100.00;101702.19;4968904;28;20047;-73
2023/05/21 05:52:18;;;;;;;16.13;11.20;;;;;;;14.15;100.00;101703.78;4975675;28;20030;-72
2023/05/21 05:54:44;;;;;;;14.65;10.50;;;;;;;14.16;100.00;101701.00;4983767;28;20125;-72
2023/05/21 05:57:10;;;;;;;17.48;11.27;;;;;;;14.28;100.00;101709.22;4945259;28;20039;-73
2023/05/21 05:59:37;;;;;;;14.57;11.35;;;;;;;14.35;100.00;101705.16;4964263;28;20035;-72
2023/05/21 06:02:06;;;;;;;15.13;11.43;;;;;;;14.32;100.00;101700.00;4980984;28;20100;-72
2023/05/21 06:04:32;;;;;;;14.13;10.75;;;;;;;14.18;100.00;101703.59;4969956;28;20035;-73
2023/05/21 06:06:59;;;;;;;15.65;11.15;;;;;;;14.28;100.00;101704.72;4980173;28;20073;-72
2023/05/21 06:09:25;;;;;;;14.73;10.90;;;;;;;14.55;100.00;101704.75;4966766;28;20651;-73
2023/05/21 06:11:51;;;;;;;17.58;11.10;;;;;;;14.32;100.00;101697.34;4969597;28;20035;-72
2023/05/21 06:14:19;;;;;;;13.77;10.43;;;;;;;14.36;100.00;101701.53;4969983;28;20035;-73
2023/05/21 06:16:44;;;;;;;19.40;11.60;;;;;;;14.56;100.00;101697.53;4968838;28;20888;-73
2023/05/21 06:19:11;;;;;;;16.25;10.57;;;;;;;14.76;100.00;101692.59;4969472;28;20445;-72
2023/05/21 06:21:37;;;;;;;15.88;11.82;;;;;;;14.59;100.00;101695.53;4970407;28;20122;-74
2023/05/21 06:24:06;;;;;;;16.48;11.45;;;;;;;15.17;100.00;101699.66;4968248;28;20154;-72
2023/05/21 06:26:32;;;;;;;17.10;10.73;;;;;;;15.29;100.00;101698.78;4966524;28;20035;-72
2023/05/21 06:29:01;;;;;;;16.05;11.40;;;;;;;15.36;100.00;101704.63;4969084;28;20489;-73
2023/05/21 06:31:28;;;;;;;13.93;10.52;;;;;;;15.35;100.00;101694.81;4972473;28;20034;-72
2023/05/21 06:33:54;;;;;;;18.98;11.23;;;;;;;15.36;100.00;101698.34;4969827;28;20039;-72
2023/05/21 06:36:20;;;;;;;18.55;11.10;;;;;;;15.16;100.00;101697.94;4964577;28;20031;-72
2023/05/21 06:38:47;;;;;;;14.15;10.63;;;;;;;15.36;100.00;101699.25;4961122;28;20034;-73
2023/05/21 06:41:13;;;;;;;14.15;11.15;;;;;;;15.22;100.00;101704.72;4950265;28;20042;-72
2023/05/21 06:43:48;;;;;;;17.55;11.18;;;;;;;15.14;100.00;101701.69;4964755;28;20461;-72
2023/05/21 06:46:35;;;;;;;16.55;11.45;;;;;;;15.63;100.00;101693.78;4968194;28;20118;-72
2023/05/21 06:49:06;;;;;;;18.60;11.13;;;;;;;15.17;100.00;101702.34;4954199;28;20047;-74
2023/05/21 06:51:33;;;;;;;18.58;11.38;;;;;;;15.36;100.00;101685.81;4970461;28;20277;-75
2023/05/21 06:54:03;;;;;;;18.25;10.98;;;;;;;15.42;100.00;101696.13;4961109;28;20039;-74
2023/05/21 06:56:32;;;;;;;15.40;10.48;;;;;;;15.92;100.00;101683.63;4967643;28;20038;-74
2023/05/21 06:58:58;;;;;;;16.75;11.35;;;;;;;15.89;100.00;101683.84;4967635;28;20023;-74
2023/05/21 07:01:27;;;;;;;14.02;10.18;;;;;;;16.20;100.00;101684.28;4965656;28;20300;-74
2023/05/21 07:03:53;;;;;;;14.85;10.38;;;;;;;16.23;100.00;101687.63;4967740;28;20770;-73
2023/05/21 07:06:18;;;;;;;16.67;11.25;;;;;;;16.14;100.00;101690.13;4958688;28;20069;-72
2023/05/21 07:08:45;;;;;;;16.55;10.70;;;;;;;15.78;100.00;101690.00;4967474;28;20041;-73
2023/05/21 07:11:10;;;;;;;22.27;10.82;;;;;;;16.18;100.00;101679.03;4966477;28;20119;-72
2023/05/21 07:13:36;;;;;;;13.30;9.85;;;;;;;16.45;100.00;101678.78;4967977;28;20118;-73
2023/05/21 07:16:02;;;;;;;15.80;11.52;;;;;;;16.40;100.00;101675.59;4979319;28;20073;-73
2023/05/21 07:18:28;;;;;;;14.18;10.00;;;;;;;16.19;100.00;101666.41;4985693;28;20070;-74
2023/05/21 07:20:55;;;;;;;17.35;11.65;;;;;;;16.41;100.00;101663.84;4950936;28;20487;-75
2023/05/21 07:23:22;;;;;;;18.77;10.82;;;;;;;16.58;100.00;101660.75;4985668;28;20134;-72
2023/05/21 07:25:48;;;;;;;17.08;10.73;;;;;;;16.78;100.00;101671.88;4961492;28;21275;-73
2023/05/21 07:28:13;;;;;;;12.27;9.43;;;;;;;17.09;100.00;101668.53;4968144;28;20062;-73
2023/05/21 07:30:39;;;;;;;14.77;11.02;;;;;;;16.60;100.00;101663.31;4972857;28;20035;-73
2023/05/21 07:33:09;;;;;;;17.58;11.20;;;;;;;16.76;100.00;101666.59;4962565;28;20034;-73
2023/05/21 07:35:36;;;;;;;16.48;11.00;;;;;;;17.23;100.00;101667.47;4966037;28;20122;-72
2023/05/21 07:38:02;;;;;;;16.95;11.13;;;;;;;17.29;100.00;101656.19;4982777;28;20121;-74
2023/05/21 07:40:28;;;;;;;17.40;10.95;;;;;;;17.21;100.00;101664.03;4964372;28;20390;-75
2023/05/21 07:42:54;;;;;;;16.67;10.88;;;;;;;16.87;100.00;101655.03;4969047;28;20169;-74
2023/05/21 07:45:22;;;;;;;14.60;10.93;;;;;;;17.29;100.00;101655.34;4967008;28;20039;-73
2023/05/21 07:47:48;;;;;;;15.32;11.65;;;;;;;16.81;100.00;101659.03;4967778;28;20039;-74
2023/05/21 07:50:14;;;;;;;17.02;11.70;;;;;;;17.41;100.00;101654.38;4970885;28;20042;-73
2023/05/21 07:52:40;;;;;;;17.65;11.98;;;;;;;17.35;100.00;101652.16;4967839;28;20067;-75
2023/05/21 07:55:07;;;;;;;16.80;11.68;;;;;;;17.91;100.00;101643.22;4976688;28;20658;-72
2023/05/21 07:57:36;;;;;;;19.02;11.13;;;;;;;18.19;100.00;101644.53;4964656;28;20038;-72
2023/05/21 08:00:12;;;;;;;;;;;;;;;18.08;100.00;101642.72;4980518;28;20042;-72
2023/05/21 08:02:41;;;;;;;16.98;11.13;;;;;;;18.30;100.00;101634.53;4969274;28;19964;-72
2023/05/21 08:05:09;;;;;;;16.13;11.73;;;;;;;18.26;100.00;101643.03;4967690;28;20035;-76
2023/05/21 08:07:37;;;;;;;14.63;11.43;;;;;;;18.86;100.00;101634.31;4976593;28;20050;-74
2023/05/21 08:10:07;;;;;;;19.13;11.15;;;;;;;18.34;100.00;101629.75;4963322;28;20634;-74
2023/05/21 08:12:37;;;;;;;14.48;11.05;;;;;;;18.83;100.00;101637.31;4949324;28;20047;-74
2023/05/21 08:15:07;;;;;;;14.55;11.35;;;;;;;19.13;100.00;101628.38;4969254;28;20038;-73
2023/05/21 08:17:38;;;;;;;15.95;11.95;;;;;;;18.74;100.00;101637.22;4964671;28;20040;-73
2023/05/21 08:20:06;;;;;;;15.02;11.52;;;;;;;19.16;100.00;101632.66;4970419;28;20039;-72
2023/05/21 08:22:36;;;;;;;15.73;11.40;;;;;;;18.74;100.00;101639.94;4967500;28;20042;-73
2023/05/21 08:25:02;;;;;;;16.17;11.55;;;;;;;18.86;100.00;101639.72;4963454;28;20141;-72
2023/05/21 08:27:28;;;;;;;18.83;11.82;;;;;;;19.19;100.00;101635.09;4964658;28;20035;-73
2023/05/21 08:29:54;;;;;;;14.38;11.60;;;;;;;18.56;100.00;101642.28;4965095;28;20088;-72
2023/05/21 08:32:20;;;;;;;17.38;12.98;;;;;;;18.11;100.00;101647.84;4969467;28;20045;-72
2023/05/21 08:34:49;;;;;;;17.63;13.02;;;;;;;18.46;100.00;101639.50;4969227;28;20775;-73
2023/05/21 08:37:31;;;;;;;18.75;12.98;;;;;;;18.45;100.00;101640.50;4963867;28;20134;-74
2023/05/21 08:40:02;;;;;;;18.70;12.77;;;;;;;18.66;100.00;101627.03;4957126;28;20038;-73
2023/05/21 08:42:48;;;;;;;14.38;12.18;;;;;;;18.85;100.00;101632.59;4963224;28;20053;-75
2023/05/21 08:45:21;;;;;;;18.95;12.60;;;;;;;19.24;100.00;101634.72;4964396;28;21012;-74
2023/05/21 08:47:47;;;;;;;19.40;12.77;;;;;;;19.28;100.00;101630.75;4963521;28;20042;-74
2023/05/21 08:50:18;;;;;;;17.42;13.40;;;;;;;19.31;100.00;101625.91;4962923;28;20058;-72
2023/05/21 08:52:45;;;;;;;26.20;12.65;;;;;;;19.40;100.00;101638.63;4951838;28;20043;-74
2023/05/21 08:55:12;;;;;;;19.23;13.02;;;;;;;19.03;100.00;101637.44;4970860;28;20039;-74
2023/05/21 08:57:42;;;;;;;20.00;13.57;;;;;;;19.20;100.00;101644.06;4964404;28;20038;-74
2023/05/21 09:00:09;;;;;;;21.23;13.23;;;;;;;19.04;100.00;101633.72;4979811;28;20142;-74
2023/05/21 09:02:39;;;;;;;20.27;12.60;;;;;;;19.28;100.00;101628.03;4967496;28;20074;-75
2023/05/21 09:05:08;;;;;;;18.15;13.27;;;;;;;19.75;100.00;101631.97;4956278;28;20047;-74
2023/05/21 09:07:43;;;;;;;20.08;13.98;;;;;;;20.07;98.93;101625.47;4967762;28;20108;-74
2023/05/21 09:10:38;;;;;;;19.08;14.25;;;;;;;19.66;98.77;101625.53;4965435;28;20909;-74
2023/05/21 09:13:09;;;;;;;20.70;13.43;;;;;;;19.80;97.79;101624.28;4967661;28;20031;-75
2023/05/21 09:15:37;;;;;;;22.10;14.95;;;;;;;19.81;93.41;101634.13;4967741;28;20659;-74
2023/05/21 09:18:08;;;;;;;21.83;13.77;;;;;;;20.61;97.90;101613.28;4978268;28;20057;-73
2023/05/21 09:20:50;;;;;;;20.92;14.73;;;;;;;20.14;96.33;101621.25;4978972;28;20043;-73
2023/05/21 09:23:18;;;;;;;22.80;14.75;;;;;;;20.78;99.40;101617.97;4968234;28;20487;-74
2023/05/21 09:25:50;;;;;;;27.42;15.40;;;;;;;20.14;97.54;101616.69;4977573;28;20830;-73
2023/05/21 09:28:29;;;;;;;22.65;15.18;;;;;;;19.78;94.70;101625.41;4960737;28;20041;-76
2023/05/21 09:30:55;;;;;;;23.20;16.70;;;;;;;20.08;94.29;101608.22;4963163;28;20027;-74
2023/05/21 09:33:28;;;;;;;22.92;15.73;;;;;;;20.25;96.05;101612.97;4955144;28;20074;-72
2023/05/21 09:35:54;;;;;;;21.67;15.43;;;;;;;20.35;98.24;101610.28;4975814;28;20493;-75
2023/05/21 09:38:26;;;;;;;22.30;15.63;;;;;;;20.17;99.44;101610.97;4972622;28;20141;-73
2023/05/21 09:40:55;;;;;;;21.42;16.25;;;;;;;20.49;95.13;101617.16;4967326;28;20038;-73
2023/05/21 09:43:21;;;;;;;23.50;16.77;;;;;;;20.25;94.47;101610.28;4964354;28;20048;-73
2023/05/21 09:45:52;;;;;;;25.63;16.67;;;;;;;20.36;95.44;101611.97;4970660;28;20035;-73
2023/05/21 09:48:42;;;;;;;21.50;15.73;;;;;;;20.64;91.75;101613.03;4963541;28;20043;-73
2023/05/21 09:51:20;;;;;;;20.65;16.65;;;;;;;20.52;94.06;101609.59;4963422;28;20053;-74
2023/05/21 09:54:00;;;;;;;23.50;16.90;;;;;;;20.24;99.27;101597.72;4965379;28;20055;-73
2023/05/21 09:56:29;;;;;;;24.63;16.35;;;;;;;20.41;95.75;101607.00;4966196;28;20045;-72
2023/05/21 09:58:59;;;;;;;27.15;17.67;;;;;;;20.30;94.83;101594.44;4968735;28;20899;-75
2023/05/21 10:01:26;;;;;;;24.88;18.35;;;;;;;20.44;99.08;101593.19;4963082;28;20042;-75
2023/05/21 10:03:57;;;;;;;28.70;18.27;;;;;;;20.66;97.06;101594.75;4964423;28;20149;-75
2023/05/21 10:06:39;;;;;;;25.27;16.70;;;;;;;20.54;96.30;101596.75;4965543;28;20029;-74
2023/05/21 10:09:10;;;;;;;26.75;18.25;;;;;;;20.09;95.96;101591.88;4966638;28;20619;-74
2023/05/21 10:11:38;;;;;;;24.48;17.70;;;;;;;20.68;93.00;101588.19;4964765;28;20508;-73
2023/05/21 10:14:11;;;;;;;31.85;18.60;;;;;;;20.46;93.30;101585.75;4968496;28;20039;-73
2023/05/21 10:16:36;;;;;;;24.13;19.23;;;;;;;20.55;95.10;101584.91;4966351;28;20077;-72
2023/05/21 10:19:04;;;;;;;25.75;18.52;;;;;;;20.74;96.46;101586.75;4963937;28;20714;-73
2023/05/21 10:21:32;;;;;;;26.20;18.58;;;;;;;20.77;90.77;101577.47;4972442;28;20749;-73
2023/05/21 10:24:00;;;;;;;23.48;17.45;;;;;;;20.58;92.99;101587.34;4962361;28;20077;-73
2023/05/21 10:26:30;;;;;;;23.17;17.30;;;;;;;21.07;95.16;101581.81;4965258;28;20034;-73
2023/05/21 10:28:59;;;;;;;26.50;19.05;;;;;;;20.39;99.41;101581.91;4965599;28;20034;-72
2023/05/21 10:31:26;;;;;;;25.85;19.55;;;;;;;20.59;96.89;101589.06;4966242;28;20034;-72
2023/05/21 10:33:53;;;;;;;27.42;19.20;;;;;;;21.02;98.31;101578.69;4965388;28;20027;-73
2023/05/21 10:36:20;;;;;;;34.67;19.95;;;;;;;20.48;91.55;101591.03;4964894;28;20046;-74
2023/05/21 10:38:46;;;;;;;26.25;18.60;;;;;;;20.59;96.99;101580.06;4977409;28;20633;-74
2023/05/21 10:41:19;;;;;;;26.75;20.17;;;;;;;20.83;91.46;101574.16;4968027;28;20057;-74
2023/05/21 10:43:45;;;;;;;25.10;18.58;;;;;;;21.29;92.57;101576.03;4967265;28;20054;-75
2023/05/21 10:46:30;;;;;;;25.98;19.08;;;;;;;21.55;94.49;101569.97;4964484;28;20088;-75
2023/05/21 10:48:59;;;;;;;28.05;19.02;;;;;;;21.19;90.24;101569.81;4965380;28;20105;-74
2023/05/21 10:51:29;;;;;;;28.67;19.70;;;;;;;21.01;90.91;101567.00;4966282;28;20980;-72
2023/05/21 10:54:25;;;;;;;30.45;20.05;;;;;;;20.99;90.86;101562.75;4958195;28;20048;-72
2023/05/21 10:57:16;;;;;;;25.77;18.60;;;;;;;21.09;92.59;101561.69;4966452;28;20125;-72
2023/05/21 10:59:44;;;;;;;29.98;20.23;;;;;;;21.43;86.63;101559.28;4962402;28;20042;-72
2023/05/21 11:02:13;;;;;;;29.42;20.42;;;;;;;21.31;89.42;101565.06;4965170;28;20090;-72
2023/05/21 11:04:42;;;;;;;27.55;20.25;;;;;;;21.80;94.82;101563.81;4959637;28;20428;-73
2023/05/21 11:07:08;;;;;;;25.23;19.42;;;;;;;21.84;90.60;101562.50;4947529;28;20035;-73
2023/05/21 11:09:37;;;;;;;25.25;19.67;;;;;;;21.85;86.30;101556.06;4965844;28;20034;-73
2023/05/21 11:12:08;;;;;;;24.40;17.95;;;;;;;21.41;90.05;101566.72;4970660;28;20133;-75
2023/05/21 11:14:38;;;;;;;30.45;20.08;;;;;;;21.17;88.97;101560.94;4964557;28;20039;-74